Terminal Aerodrome Forecast
Issued by NWS

Home | Current Version | Previous Version | Text Only | Print | Product List | Glossary On
Versions: 1 2 3 4 5 6 7 8 9 10 11 12
000
FTUS45 KRIW 271100
TAFBPI
TAF
KBPI 271120Z 2712/2812 16006KT P6SM VCSH OVC018
     FM271600 VRB04KT P6SM SCT030 SCT080
     FM272100 15006KT P6SM FEW040 BKN080
     FM280000 VRB04KT P6SM VCSH SCT030 BKN040
     FM280800 VRB04KT P6SM VCSH BKN030=

USA.gov is the U.S. government's official web portal to all federal, state and local government web resources and services.